createdAt,value
2018-07-06T00:01:18.404Z,2.87
2018-07-06T00:03:53.217Z,2.27
2018-07-06T00:06:33.832Z,4.57
2018-07-06T00:09:14.595Z,2.93
2018-07-06T00:11:55.142Z,3.77
2018-07-06T00:14:29.713Z,2.73
2018-07-06T00:17:10.175Z,2.83
2018-07-06T00:19:50.813Z,2.70
2018-07-06T00:22:31.602Z,3.97
2018-07-06T00:25:12.388Z,3.30
2018-07-06T00:27:47.098Z,3.70
2018-07-06T00:30:27.591Z,2.50
2018-07-06T00:33:08.153Z,3.20
2018-07-06T00:35:42.863Z,2.83
2018-07-06T00:38:23.376Z,2.70
2018-07-06T00:41:04.071Z,3.97
2018-07-06T00:43:44.535Z,2.70
2018-07-06T00:46:25.119Z,3.63
2018-07-06T00:49:05.738Z,3.47
2018-07-06T00:51:46.296Z,3.17
2018-07-06T00:54:26.850Z,2.77
2018-07-06T00:57:07.656Z,2.97
2018-07-06T00:59:49.126Z,2.93
2018-07-06T01:02:29.916Z,3.40
2018-07-06T01:05:11.302Z,2.83
2018-07-06T01:07:52.770Z,4.10
2018-07-06T01:10:33.617Z,4.17
2018-07-06T01:13:14.360Z,3.10
2018-07-06T01:15:55.114Z,5.50
2018-07-06T01:18:35.953Z,3.90
2018-07-06T01:21:16.785Z,2.83
2018-07-06T01:23:57.506Z,2.87
2018-07-06T01:26:38.244Z,5.90
2018-07-06T01:29:18.779Z,3.23
2018-07-06T01:31:59.533Z,3.97
2018-07-06T01:34:40.259Z,3.57
2018-07-06T01:37:20.873Z,4.13
2018-07-06T01:40:01.741Z,2.90
2018-07-06T01:42:42.412Z,3.10
2018-07-06T01:45:22.918Z,4.60
2018-07-06T01:48:03.537Z,5.60
2018-07-06T01:50:44.123Z,4.40
2018-07-06T01:53:24.951Z,3.50
2018-07-06T01:56:06.433Z,4.53
2018-07-06T01:58:47.166Z,3.60
2018-07-06T02:01:27.708Z,4.43
2018-07-06T02:04:08.425Z,3.50
2018-07-06T02:06:48.982Z,3.97
2018-07-06T02:09:29.594Z,4.80
2018-07-06T02:12:04.145Z,4.30
2018-07-06T02:14:45.220Z,5.03
2018-07-06T02:17:25.916Z,4.80
2018-07-06T02:20:06.483Z,4.47
2018-07-06T02:22:47.057Z,6.03
2018-07-06T02:25:27.665Z,5.03
2018-07-06T02:28:09.228Z,6.27
2018-07-06T02:30:49.748Z,4.73
2018-07-06T02:33:30.505Z,6.57
2018-07-06T02:36:11.270Z,6.67
2018-07-06T02:38:51.953Z,7.57
2018-07-06T02:41:32.552Z,7.13
2018-07-06T02:44:13.262Z,6.13
2018-07-06T02:46:53.834Z,8.23
2018-07-06T02:49:34.383Z,6.50
2018-07-06T02:52:15.150Z,7.70
2018-07-06T02:54:55.774Z,8.20
2018-07-06T02:57:36.440Z,7.10
2018-07-06T03:00:16.915Z,7.27
2018-07-06T03:02:57.633Z,8.30
2018-07-06T03:05:38.442Z,6.40
2018-07-06T03:08:19.038Z,7.10
2018-07-06T03:10:59.663Z,7.80
2018-07-06T03:13:40.353Z,9.50
2018-07-06T03:16:21.184Z,7.53
2018-07-06T03:19:01.884Z,7.60
2018-07-06T03:21:42.442Z,12.03
2018-07-06T03:24:23.151Z,8.07
2018-07-06T03:26:57.746Z,8.97
2018-07-06T03:29:38.406Z,6.87
2018-07-06T03:32:19.100Z,8.40
2018-07-06T03:34:59.691Z,10.13
2018-07-06T03:37:40.364Z,7.83
2018-07-06T03:40:20.973Z,8.03
2018-07-06T03:43:01.691Z,10.30
2018-07-06T03:45:42.295Z,10.90
2018-07-06T03:48:27.089Z,8.57
2018-07-06T03:51:08.316Z,8.30
2018-07-06T03:53:42.939Z,6.97
2018-07-06T03:56:23.557Z,7.37
2018-07-06T03:59:04.246Z,11.03
2018-07-06T04:01:44.888Z,7.77
2018-07-06T04:04:25.454Z,9.87
2018-07-06T04:07:06.101Z,7.93
2018-07-06T04:09:46.580Z,8.03
2018-07-06T04:12:27.174Z,7.43
2018-07-06T04:15:07.940Z,12.13
2018-07-06T04:17:48.578Z,8.37
2018-07-06T04:20:29.165Z,7.03
2018-07-06T04:23:09.760Z,8.57
2018-07-06T04:25:50.319Z,11.63
2018-07-06T04:28:30.782Z,10.40
2018-07-06T04:31:05.476Z,7.63
2018-07-06T04:33:45.832Z,7.07
2018-07-06T04:36:26.263Z,8.73
2018-07-06T04:39:06.851Z,8.97
2018-07-06T04:41:47.506Z,6.83
2018-07-06T04:44:28.235Z,9.53
2018-07-06T04:47:08.894Z,9.13
2018-07-06T04:49:49.522Z,7.03
2018-07-06T04:52:29.961Z,10.63
2018-07-06T04:55:10.549Z,7.80
2018-07-06T04:57:51.391Z,9.47
2018-07-06T05:00:32.183Z,9.10
2018-07-06T05:03:12.830Z,10.20
2018-07-06T05:05:53.417Z,7.03
2018-07-06T05:08:33.942Z,8.60
2018-07-06T05:11:14.536Z,6.70
2018-07-06T05:13:55.226Z,10.57
2018-07-06T05:16:35.965Z,9.00
2018-07-06T05:19:16.653Z,7.97
2018-07-06T05:21:57.055Z,9.90
2018-07-06T05:24:37.751Z,9.47
2018-07-06T05:27:18.283Z,10.07
2018-07-06T05:29:58.844Z,6.97
2018-07-06T05:32:39.378Z,8.80
2018-07-06T05:35:19.962Z,10.87
2018-07-06T05:37:54.711Z,9.23
2018-07-06T05:40:35.173Z,8.23
2018-07-06T05:43:15.711Z,10.03
2018-07-06T05:45:56.431Z,8.73
2018-07-06T05:48:36.960Z,7.60
2018-07-06T05:51:17.559Z,9.63
2018-07-06T05:53:58.216Z,9.83
2018-07-06T05:56:38.714Z,9.37
2018-07-06T05:59:19.291Z,8.77
2018-07-06T06:01:59.908Z,8.07
2018-07-06T06:04:40.562Z,10.93
2018-07-06T06:07:24.700Z,9.37
2018-07-06T06:09:54.166Z,10.43
2018-07-06T06:12:23.548Z,7.47
2018-07-06T06:14:53.313Z,7.40
2018-07-06T06:17:22.794Z,8.40
2018-07-06T06:19:52.149Z,7.90
2018-07-06T06:22:21.255Z,10.30
2018-07-06T06:24:50.544Z,10.50
2018-07-06T06:27:20.489Z,7.97
2018-07-06T06:29:50.970Z,8.83
2018-07-06T06:32:20.804Z,7.67
2018-07-06T06:34:50.195Z,7.87
2018-07-06T06:37:19.657Z,8.17
2018-07-06T06:39:49.065Z,7.43
2018-07-06T06:42:18.558Z,9.20
2018-07-06T06:44:48.216Z,9.47
2018-07-06T06:47:17.624Z,9.23
2018-07-06T06:49:47.047Z,6.33
2018-07-06T06:52:16.510Z,9.30
2018-07-06T06:54:45.917Z,6.87
2018-07-06T06:57:15.553Z,7.07
2018-07-06T06:59:44.974Z,7.93
2018-07-06T07:02:14.542Z,8.60
2018-07-06T07:04:44.038Z,9.20
2018-07-06T07:07:13.788Z,7.03
2018-07-06T07:09:43.169Z,8.30
2018-07-06T07:12:12.555Z,7.70
2018-07-06T07:14:41.605Z,9.33
2018-07-06T07:17:10.912Z,8.67
2018-07-06T07:19:40.448Z,9.03
2018-07-06T07:22:09.990Z,6.33
2018-07-06T07:24:39.540Z,7.60
2018-07-06T07:27:08.950Z,8.67
2018-07-06T07:29:38.345Z,10.07
2018-07-06T07:32:07.763Z,7.00
2018-07-06T07:34:37.406Z,7.07
2018-07-06T07:37:06.794Z,6.30
2018-07-06T07:39:36.298Z,6.90
2018-07-06T07:42:05.829Z,6.40
2018-07-06T07:44:35.340Z,5.83
2018-07-06T07:47:04.732Z,6.60
2018-07-06T07:49:34.054Z,6.03
2018-07-06T07:52:14.627Z,7.33
2018-07-06T07:54:48.923Z,7.30
2018-07-06T07:57:18.676Z,6.73
2018-07-06T07:59:48.298Z,7.87
2018-07-06T08:02:17.770Z,6.80
2018-07-06T08:04:47.709Z,6.13
2018-07-06T08:07:18.133Z,7.90
2018-07-06T08:09:47.656Z,6.87
2018-07-06T08:12:17.105Z,7.17
2018-07-06T08:14:46.608Z,5.90
2018-07-06T08:17:15.985Z,7.37
2018-07-06T08:19:45.296Z,7.77
2018-07-06T08:22:14.642Z,6.80
2018-07-06T08:24:44.006Z,6.30
2018-07-06T08:27:13.387Z,9.13
2018-07-06T08:29:42.739Z,6.37
2018-07-06T08:32:12.143Z,7.47
2018-07-06T08:34:52.657Z,7.17
2018-07-06T08:37:35.492Z,8.30
2018-07-06T08:40:05.088Z,6.57
2018-07-06T08:42:35.462Z,9.17
2018-07-06T08:45:05.176Z,8.30
2018-07-06T08:47:34.893Z,6.20
2018-07-06T08:50:04.938Z,6.43
2018-07-06T08:52:34.829Z,5.60
2018-07-06T08:55:04.336Z,5.90
2018-07-06T08:57:34.330Z,8.03
2018-07-06T09:00:03.797Z,5.93
2018-07-06T09:02:33.182Z,5.63
2018-07-06T09:05:02.692Z,7.13
2018-07-06T09:07:32.184Z,5.17
2018-07-06T09:10:02.009Z,7.30
2018-07-06T09:12:31.517Z,4.93
2018-07-06T09:15:01.586Z,5.70
2018-07-06T09:17:30.972Z,5.20
2018-07-06T09:20:01.111Z,6.57
2018-07-06T09:22:30.635Z,5.03
2018-07-06T09:25:01.114Z,5.23
2018-07-06T09:27:30.514Z,4.80
2018-07-06T09:30:00.032Z,6.10
2018-07-06T09:32:30.078Z,5.37
2018-07-06T09:34:59.482Z,4.70
2018-07-06T09:37:28.878Z,6.27
2018-07-06T09:39:58.265Z,5.07
2018-07-06T09:42:27.672Z,10.20
2018-07-06T09:44:56.994Z,5.23
2018-07-06T09:47:26.352Z,8.33
2018-07-06T09:49:55.710Z,5.60
2018-07-06T09:52:25.042Z,5.63
2018-07-06T09:54:54.446Z,8.10
2018-07-06T09:57:23.800Z,5.40
2018-07-06T09:59:53.163Z,5.87
2018-07-06T10:02:22.163Z,5.60
2018-07-06T10:04:51.409Z,5.90
2018-07-06T10:07:20.776Z,5.13
2018-07-06T10:09:50.197Z,6.00
2018-07-06T10:12:19.556Z,5.57
2018-07-06T10:14:48.977Z,5.50
2018-07-06T10:17:18.402Z,6.63
2018-07-06T10:19:47.496Z,6.77
2018-07-06T10:22:16.361Z,5.57
2018-07-06T10:24:45.642Z,6.90
2018-07-06T10:27:15.073Z,8.20
2018-07-06T10:30:10.770Z,5.43
2018-07-06T10:32:40.222Z,5.07
2018-07-06T10:35:09.673Z,6.57
2018-07-06T10:37:38.994Z,6.73
2018-07-06T10:40:08.420Z,5.87
2018-07-06T10:42:37.794Z,6.77
2018-07-06T10:45:07.181Z,5.80
2018-07-06T10:47:36.552Z,4.97
2018-07-06T10:50:05.944Z,6.07
2018-07-06T10:52:35.287Z,4.70
2018-07-06T10:55:04.680Z,4.73
2018-07-06T10:57:34.179Z,5.90
2018-07-06T11:00:03.250Z,5.77
2018-07-06T11:02:32.493Z,4.73
2018-07-06T11:05:02.080Z,5.40
2018-07-06T11:07:31.550Z,5.53
2018-07-06T11:10:02.063Z,5.27
2018-07-06T11:12:31.494Z,6.37
2018-07-06T11:15:00.824Z,6.57
2018-07-06T11:17:30.176Z,6.83
2018-07-06T11:19:59.610Z,4.70
2018-07-06T11:22:29.015Z,4.20
2018-07-06T11:24:58.450Z,5.17
2018-07-06T11:27:27.808Z,4.83
2018-07-06T11:29:57.239Z,6.37
2018-07-06T11:32:26.634Z,5.03
2018-07-06T11:34:56.022Z,4.67
2018-07-06T11:37:25.561Z,3.80
2018-07-06T11:39:55.017Z,4.00
2018-07-06T11:42:24.050Z,4.40
2018-07-06T11:44:53.390Z,3.80
2018-07-06T11:47:22.915Z,4.13
2018-07-06T11:49:52.262Z,4.30
2018-07-06T11:52:21.640Z,4.13
2018-07-06T11:54:50.672Z,4.87
2018-07-06T11:57:19.950Z,5.30
2018-07-06T11:59:49.491Z,4.20
2018-07-06T12:02:18.868Z,4.37
2018-07-06T12:04:48.199Z,5.47
2018-07-06T12:07:17.723Z,4.03
2018-07-06T12:09:47.136Z,4.20
2018-07-06T12:12:16.468Z,3.73
2018-07-06T12:14:45.944Z,3.67
2018-07-06T12:17:15.330Z,4.87
2018-07-06T12:19:44.756Z,3.70
2018-07-06T12:22:14.271Z,3.77
2018-07-06T12:24:43.627Z,3.63
2018-07-06T12:27:13.120Z,4.30
2018-07-06T12:29:42.590Z,6.17
2018-07-06T12:32:12.106Z,4.37
2018-07-06T12:34:41.536Z,4.07
2018-07-06T12:37:11.590Z,5.53
2018-07-06T12:39:41.139Z,5.23
2018-07-06T12:42:10.533Z,3.90
2018-07-06T12:44:39.880Z,4.87
2018-07-06T12:47:09.294Z,3.80
2018-07-06T12:49:41.125Z,5.63
2018-07-06T12:52:10.628Z,3.67
2018-07-06T12:54:39.655Z,3.60
2018-07-06T12:57:08.932Z,4.60
2018-07-06T12:59:38.335Z,4.50
2018-07-06T13:02:07.744Z,5.00
2018-07-06T13:04:37.227Z,3.90
2018-07-06T13:07:06.537Z,4.17
2018-07-06T13:09:35.886Z,3.87
2018-07-06T13:12:05.323Z,3.37
2018-07-06T13:14:34.679Z,4.37
2018-07-06T13:17:04.183Z,3.40
2018-07-06T13:19:33.538Z,4.07
2018-07-06T13:22:03.203Z,4.10
2018-07-06T13:24:32.712Z,3.80
2018-07-06T13:27:02.120Z,3.83
2018-07-06T13:29:31.474Z,3.30
2018-07-06T13:32:00.479Z,3.60
2018-07-06T13:34:29.730Z,3.60
2018-07-06T13:36:59.062Z,3.90
2018-07-06T13:39:30.174Z,5.33
2018-07-06T13:41:59.559Z,4.50
2018-07-06T13:44:29.048Z,3.30
2018-07-06T13:46:58.397Z,3.03
2018-07-06T13:49:27.870Z,3.00
2018-07-06T13:51:57.370Z,3.80
2018-07-06T13:54:26.793Z,3.30
2018-07-06T13:56:56.231Z,4.53
2018-07-06T13:59:25.798Z,4.10
2018-07-06T14:01:55.248Z,3.43
2018-07-06T14:04:24.712Z,3.83
2018-07-06T14:06:54.272Z,3.10
2018-07-06T14:09:23.594Z,3.33
2018-07-06T14:11:53.214Z,3.93
2018-07-06T14:14:22.623Z,4.30
2018-07-06T14:16:51.994Z,3.73
2018-07-06T14:19:21.404Z,3.23
2018-07-06T14:21:50.913Z,3.00
2018-07-06T14:24:20.420Z,2.90
2018-07-06T14:26:49.824Z,3.07
2018-07-06T14:29:19.334Z,3.00
2018-07-06T14:31:48.792Z,2.73
2018-07-06T14:34:18.230Z,3.20
2018-07-06T14:36:47.842Z,4.47
2018-07-06T14:39:17.266Z,2.73
2018-07-06T14:41:46.777Z,5.10
2018-07-06T14:44:16.234Z,2.43
2018-07-06T14:46:45.692Z,6.10
2018-07-06T14:49:15.203Z,3.13
2018-07-06T14:51:44.656Z,4.73
2018-07-06T14:54:14.119Z,2.80
2018-07-06T14:56:43.576Z,2.50
2018-07-06T14:59:12.946Z,4.10
2018-07-06T15:01:42.443Z,2.93
2018-07-06T15:04:11.807Z,3.20
2018-07-06T15:06:41.228Z,2.80
2018-07-06T15:09:10.203Z,3.00
2018-07-06T15:11:39.398Z,2.57
2018-07-06T15:14:08.837Z,2.70
2018-07-06T15:16:38.181Z,3.10
2018-07-06T15:19:07.582Z,3.20
2018-07-06T15:21:36.977Z,3.50
2018-07-06T15:24:06.533Z,3.47
2018-07-06T15:26:35.886Z,4.33
2018-07-06T15:29:05.289Z,3.70
2018-07-06T15:31:34.706Z,5.50
2018-07-06T15:34:04.114Z,3.23
2018-07-06T15:36:33.523Z,4.00
2018-07-06T15:39:03.031Z,3.20
2018-07-06T15:41:32.088Z,3.00
2018-07-06T15:44:01.302Z,2.60
2018-07-06T15:46:30.844Z,2.60
2018-07-06T15:49:00.350Z,2.60
2018-07-06T15:51:29.706Z,2.83
2018-07-06T15:53:59.096Z,1.97
2018-07-06T15:56:28.506Z,2.30
2018-07-06T15:58:57.882Z,2.17
2018-07-06T16:01:27.257Z,2.60
2018-07-06T16:03:56.842Z,2.10
2018-07-06T16:06:26.326Z,2.93
2018-07-06T16:08:55.666Z,2.07
2018-07-06T16:11:25.141Z,2.07
2018-07-06T16:13:54.519Z,2.60
2018-07-06T16:16:23.928Z,2.67
2018-07-06T16:18:53.436Z,1.97
2018-07-06T16:21:22.948Z,2.50
2018-07-06T16:23:52.379Z,4.10
2018-07-06T16:26:21.864Z,2.23
2018-07-06T16:28:51.245Z,2.00
2018-07-06T16:31:20.644Z,2.20
2018-07-06T16:33:50.130Z,2.60
2018-07-06T16:36:19.154Z,2.60
2018-07-06T16:38:48.387Z,3.03
2018-07-06T16:41:17.794Z,4.50
2018-07-06T16:43:47.170Z,2.90
2018-07-06T16:46:16.667Z,3.83
2018-07-06T16:48:46.150Z,6.73
2018-07-06T16:51:15.541Z,3.30
2018-07-06T16:53:50.834Z,4.13
2018-07-06T16:56:20.220Z,3.47
2018-07-06T16:58:49.799Z,3.50
2018-07-06T17:01:19.209Z,3.40
2018-07-06T17:03:48.693Z,3.20
2018-07-06T17:06:18.032Z,3.40
2018-07-06T17:08:47.511Z,3.97
2018-07-06T17:11:17.049Z,3.33
2018-07-06T17:13:46.400Z,3.10
2018-07-06T17:16:15.781Z,3.90
2018-07-06T17:18:45.108Z,3.83
2018-07-06T17:21:14.484Z,8.33
2018-07-06T17:23:43.951Z,4.30
2018-07-06T17:26:13.324Z,4.27
2018-07-06T17:28:42.742Z,3.60
2018-07-06T17:31:12.224Z,3.77
2018-07-06T17:33:41.686Z,4.30
2018-07-06T17:36:11.046Z,3.90
2018-07-06T17:38:40.493Z,4.90
2018-07-06T17:41:10.039Z,5.40
2018-07-06T17:43:39.512Z,4.93
2018-07-06T17:46:09.022Z,4.03
2018-07-06T17:48:38.529Z,5.40
2018-07-06T17:51:07.573Z,3.80
2018-07-06T17:53:36.833Z,5.97
2018-07-06T17:56:06.456Z,4.10
2018-07-06T17:58:35.859Z,3.90
2018-07-06T18:01:05.258Z,4.40
2018-07-06T18:03:34.631Z,4.70
2018-07-06T18:06:04.052Z,4.53
2018-07-06T18:08:33.504Z,5.03
2018-07-06T18:11:02.931Z,5.57
2018-07-06T18:13:32.416Z,4.47
2018-07-06T18:16:01.796Z,4.77
2018-07-06T18:18:31.393Z,5.67
2018-07-06T18:21:00.941Z,4.37
2018-07-06T18:23:30.461Z,5.10
2018-07-06T18:25:59.938Z,4.93
2018-07-06T18:28:29.446Z,4.30
2018-07-06T18:30:58.904Z,4.30
2018-07-06T18:33:28.272Z,4.23
2018-07-06T18:35:57.628Z,4.23
2018-07-06T18:38:27.071Z,4.47
2018-07-06T18:40:56.504Z,4.60
2018-07-06T18:43:25.943Z,5.03
2018-07-06T18:45:55.299Z,4.23
2018-07-06T18:48:24.646Z,4.57
2018-07-06T18:50:54.049Z,5.60
2018-07-06T18:53:23.413Z,5.87
2018-07-06T18:55:52.922Z,4.43
2018-07-06T18:58:22.269Z,4.10
2018-07-06T19:00:51.760Z,5.30
2018-07-06T19:03:21.206Z,4.30
2018-07-06T19:05:50.652Z,4.90
2018-07-06T19:08:20.090Z,5.57
2018-07-06T19:10:49.536Z,4.70
2018-07-06T19:13:19.085Z,4.03
2018-07-06T19:15:48.508Z,4.40
2018-07-06T19:18:17.922Z,4.77
2018-07-06T19:20:47.395Z,4.60
2018-07-06T19:23:17.367Z,4.97
2018-07-06T19:25:46.824Z,4.47
2018-07-06T19:28:16.177Z,4.30
2018-07-06T19:30:45.229Z,6.50
2018-07-06T19:33:14.519Z,5.37
2018-07-06T19:35:43.954Z,4.57
2018-07-06T19:38:13.586Z,4.80
2018-07-06T19:40:42.901Z,3.97
2018-07-06T19:43:12.346Z,4.57
2018-07-06T19:45:41.710Z,4.40
2018-07-06T19:48:11.081Z,4.33
2018-07-06T19:50:40.564Z,4.73
2018-07-06T19:53:10.034Z,4.30
2018-07-06T19:55:39.398Z,4.67
2018-07-06T19:58:08.864Z,5.00
2018-07-06T20:00:37.991Z,4.33
2018-07-06T20:03:07.311Z,4.77
2018-07-06T20:05:36.820Z,4.90
2018-07-06T20:08:06.287Z,4.40
2018-07-06T20:10:35.687Z,5.13
2018-07-06T20:13:05.142Z,4.70
2018-07-06T20:15:34.687Z,5.13
2018-07-06T20:18:04.169Z,5.40
2018-07-06T20:20:33.624Z,5.57
2018-07-06T20:23:03.181Z,4.50
2018-07-06T20:25:32.602Z,5.13
2018-07-06T20:28:02.010Z,4.60
2018-07-06T20:30:31.502Z,4.63
2018-07-06T20:33:01.179Z,5.90
2018-07-06T20:35:30.554Z,4.90
2018-07-06T20:38:00.075Z,4.77
2018-07-06T20:40:29.190Z,5.10
2018-07-06T20:42:58.491Z,6.63
2018-07-06T20:45:27.466Z,5.40
2018-07-06T20:47:56.787Z,4.87
2018-07-06T20:50:26.245Z,4.30
2018-07-06T20:52:55.755Z,5.50
2018-07-06T20:55:25.121Z,4.23
2018-07-06T20:57:54.502Z,4.93
2018-07-06T21:00:23.914Z,4.70
2018-07-06T21:02:53.312Z,5.70
2018-07-06T21:05:22.694Z,4.70
2018-07-06T21:07:52.197Z,5.07
2018-07-06T21:10:21.621Z,6.53
2018-07-06T21:12:50.966Z,4.77
2018-07-06T21:15:20.352Z,4.70
2018-07-06T21:17:49.755Z,5.63
2018-07-06T21:20:19.192Z,4.73
2018-07-06T21:22:48.672Z,4.77
2018-07-06T21:25:19.129Z,4.80
2018-07-06T21:27:48.561Z,6.80
2018-07-06T21:30:17.908Z,5.80
2018-07-06T21:32:47.292Z,4.93
2018-07-06T21:35:16.642Z,6.10
2018-07-06T21:37:45.998Z,5.27
2018-07-06T21:40:15.510Z,5.27
2018-07-06T21:42:44.862Z,5.23
2018-07-06T21:45:13.903Z,6.50
2018-07-06T21:47:43.127Z,4.87
2018-07-06T21:50:12.564Z,5.40
2018-07-06T21:52:42.030Z,5.07
2018-07-06T21:55:11.438Z,5.70
2018-07-06T21:57:40.949Z,5.30
2018-07-06T22:00:10.403Z,5.27
2018-07-06T22:02:39.411Z,6.90
2018-07-06T22:05:08.677Z,5.80
2018-07-06T22:07:38.087Z,5.87
2018-07-06T22:10:07.510Z,5.87
2018-07-06T22:12:36.981Z,5.40
2018-07-06T22:15:06.442Z,6.43
2018-07-06T22:17:35.548Z,6.67
2018-07-06T22:20:04.966Z,5.40
2018-07-06T22:22:34.356Z,6.20
2018-07-06T22:25:03.375Z,6.33
2018-07-06T22:27:32.661Z,5.97
2018-07-06T22:30:02.082Z,5.37
2018-07-06T22:32:31.493Z,6.20
2018-07-06T22:35:00.861Z,8.60
2018-07-06T22:37:30.230Z,7.80
2018-07-06T22:39:59.603Z,6.20
2018-07-06T22:42:28.994Z,6.20
2018-07-06T22:44:58.376Z,7.23
2018-07-06T22:47:27.856Z,5.93
2018-07-06T22:49:57.318Z,5.33
2018-07-06T22:52:26.769Z,6.57
2018-07-06T22:54:56.144Z,5.50
2018-07-06T22:57:25.514Z,7.57
2018-07-06T22:59:54.914Z,6.77
2018-07-06T23:02:24.398Z,7.63
2018-07-06T23:04:54.559Z,6.90
2018-07-06T23:07:23.990Z,6.23
2018-07-06T23:09:53.950Z,5.77
2018-07-06T23:12:23.407Z,6.53
2018-07-06T23:14:52.863Z,7.27
2018-07-06T23:17:22.378Z,6.67
2018-07-06T23:19:51.728Z,6.07
2018-07-06T23:22:38.017Z,6.17
2018-07-06T23:25:07.444Z,6.87
2018-07-06T23:27:36.833Z,5.97
2018-07-06T23:30:06.275Z,6.00
2018-07-06T23:32:35.704Z,6.03
2018-07-06T23:35:05.062Z,5.87
2018-07-06T23:37:34.481Z,6.80
2018-07-06T23:40:03.989Z,7.13
2018-07-06T23:42:33.427Z,5.77
2018-07-06T23:45:02.936Z,5.43
2018-07-06T23:47:32.390Z,6.23
2018-07-06T23:50:01.474Z,5.83
2018-07-06T23:52:30.790Z,6.10
2018-07-06T23:55:00.259Z,6.00
2018-07-06T23:57:29.618Z,6.60
2018-07-06T23:59:58.971Z,6.77
